createdAt,value
2023-05-10T00:02:16.679Z,101471.95
2023-05-10T00:04:47.516Z,101471.73
2023-05-10T00:07:18.788Z,101469.07
2023-05-10T00:09:49.453Z,101464.05
2023-05-10T00:12:20.225Z,101468.34
2023-05-10T00:14:50.951Z,101465.98
2023-05-10T00:17:21.774Z,101463.81
2023-05-10T00:19:52.557Z,101463.30
2023-05-10T00:22:23.144Z,101463.27
2023-05-10T00:24:53.898Z,101465.94
2023-05-10T00:27:24.607Z,101466.37
2023-05-10T00:29:55.590Z,101463.08
2023-05-10T00:32:26.413Z,101461.98
2023-05-10T00:34:57.297Z,101460.60
2023-05-10T00:37:28.281Z,101459.83
2023-05-10T00:39:58.908Z,101458.06
2023-05-10T00:42:29.742Z,101457.92
2023-05-10T00:45:00.620Z,101457.77
2023-05-10T00:47:31.353Z,101458.39
2023-05-10T00:50:02.600Z,101458.38
2023-05-10T00:52:33.376Z,101458.63
2023-05-10T00:55:04.486Z,101466.20
2023-05-10T00:57:35.378Z,101461.67
2023-05-10T01:00:07.125Z,101463.92
2023-05-10T01:02:38.006Z,101462.35
2023-05-10T01:05:09.386Z,101461.23
2023-05-10T01:07:40.128Z,101460.06
2023-05-10T01:10:12.080Z,101455.48
2023-05-10T01:12:43.208Z,101456.21
2023-05-10T01:15:14.163Z,101455.15
2023-05-10T01:17:45.284Z,101452.34
2023-05-10T01:20:16.425Z,101452.23
2023-05-10T01:23:06.866Z,101449.83
2023-05-10T01:26:09.395Z,101447.85
2023-05-10T01:28:47.402Z,101445.61
2023-05-10T01:31:32.538Z,101438.33
2023-05-10T01:34:03.743Z,101443.45
2023-05-10T01:36:34.966Z,101439.18
2023-05-10T01:39:07.960Z,101439.16
2023-05-10T01:41:42.074Z,101436.89
2023-05-10T01:44:15.194Z,101439.18
2023-05-10T01:46:46.024Z,101435.59
2023-05-10T01:49:18.645Z,101433.86
2023-05-10T01:51:49.744Z,101431.19
2023-05-10T01:54:21.999Z,101436.30
2023-05-10T01:56:53.247Z,101436.19
2023-05-10T01:59:24.084Z,101438.03
2023-05-10T02:01:55.017Z,101441.52
2023-05-10T02:04:25.760Z,101439.66
2023-05-10T02:06:56.926Z,101438.57
2023-05-10T02:09:27.770Z,101438.23
2023-05-10T02:11:58.508Z,101438.84
2023-05-10T02:14:29.422Z,101440.02
2023-05-10T02:17:00.246Z,101439.79
2023-05-10T02:19:31.170Z,101435.50
2023-05-10T02:22:01.996Z,101431.75
2023-05-10T02:24:32.895Z,101433.27
2023-05-10T02:33:57.699Z,101433.59
2023-05-10T02:36:28.569Z,101430.82
2023-05-10T02:38:59.404Z,101431.52
2023-05-10T02:41:30.033Z,101431.45
2023-05-10T02:44:02.006Z,101430.59
2023-05-10T02:46:32.734Z,101429.50
2023-05-10T02:49:03.827Z,101431.20
2023-05-10T02:51:35.192Z,101428.84
2023-05-10T02:54:07.433Z,101429.66
2023-05-10T02:56:40.551Z,101430.41
2023-05-10T02:59:12.222Z,101431.07
2023-05-10T03:01:43.305Z,101429.98
2023-05-10T03:04:14.384Z,101428.84
2023-05-10T03:06:45.156Z,101430.60
2023-05-10T03:09:16.863Z,101431.70
2023-05-10T03:11:52.633Z,101427.44
2023-05-10T03:14:37.591Z,101428.08
2023-05-10T03:17:09.495Z,101429.63
2023-05-10T03:19:42.096Z,101426.15
2023-05-10T03:22:13.275Z,101432.59
2023-05-10T03:24:43.996Z,101428.29
2023-05-10T03:27:14.638Z,101427.73
2023-05-10T03:29:45.489Z,101425.54
2023-05-10T03:32:16.310Z,101425.62
2023-05-10T03:34:46.936Z,101428.36
2023-05-10T03:37:17.845Z,101427.83
2023-05-10T03:39:48.556Z,101430.13
2023-05-10T03:42:19.283Z,101429.34
2023-05-10T03:44:51.068Z,101427.73
2023-05-10T03:47:21.608Z,101426.98
2023-05-10T03:49:52.126Z,101432.35
2023-05-10T03:52:22.958Z,101429.04
2023-05-10T03:54:53.845Z,101433.92
2023-05-10T03:57:24.643Z,101432.60
2023-05-10T03:59:55.528Z,101431.98
2023-05-10T04:02:26.583Z,101433.36
2023-05-10T04:04:57.561Z,101430.88
2023-05-10T04:07:28.328Z,101433.23
2023-05-10T04:09:59.033Z,101432.69
2023-05-10T04:12:29.687Z,101433.23
2023-05-10T04:15:00.555Z,101435.02
2023-05-10T04:17:31.313Z,101437.73
2023-05-10T04:20:02.093Z,101436.70
2023-05-10T04:22:34.162Z,101438.00
2023-05-10T04:25:05.702Z,101440.57
2023-05-10T04:27:36.412Z,101439.35
2023-05-10T04:30:08.254Z,101441.65
2023-05-10T04:32:39.154Z,101438.89
2023-05-10T04:35:11.319Z,101437.86
2023-05-10T04:37:42.069Z,101439.56
2023-05-10T04:40:13.699Z,101441.73
2023-05-10T04:42:44.479Z,101439.46
2023-05-10T04:45:15.762Z,101441.15
2023-05-10T04:47:46.607Z,101438.66
2023-05-10T04:50:17.806Z,101443.27
2023-05-10T04:52:48.740Z,101440.95
2023-05-10T04:55:19.644Z,101441.10
2023-05-10T04:57:50.450Z,101442.02
2023-05-10T05:00:21.897Z,101443.32
2023-05-10T05:02:52.698Z,101442.63
2023-05-10T05:05:23.766Z,101443.46
2023-05-10T05:07:54.629Z,101442.23
2023-05-10T05:10:25.419Z,101442.04
2023-05-10T05:12:57.400Z,101439.33
2023-05-10T05:15:28.387Z,101433.80
2023-05-10T05:17:59.143Z,101438.16
2023-05-10T05:20:30.047Z,101435.21
2023-05-10T05:23:00.752Z,101434.56
2023-05-10T05:25:33.740Z,101434.68
2023-05-10T05:28:04.377Z,101430.73
2023-05-10T05:30:35.070Z,101432.40
2023-05-10T05:33:05.856Z,101434.48
2023-05-10T05:35:36.940Z,101433.35
2023-05-10T05:38:07.817Z,101436.14
2023-05-10T05:40:38.755Z,101435.05
2023-05-10T05:43:09.362Z,101437.13
2023-05-10T05:45:40.136Z,101440.31
2023-05-10T05:48:11.182Z,101440.60
2023-05-10T05:50:41.988Z,101439.45
2023-05-10T05:53:12.810Z,101438.85
2023-05-10T05:55:47.710Z,101437.20
2023-05-10T05:58:18.372Z,101439.00
2023-05-10T06:00:49.338Z,101443.26
2023-05-10T06:03:20.008Z,101443.31
2023-05-10T06:05:50.883Z,101443.65
2023-05-10T06:08:21.750Z,101444.21
2023-05-10T06:10:52.617Z,101439.78
2023-05-10T06:13:23.566Z,101440.52
2023-05-10T06:15:54.372Z,101440.59
2023-05-10T06:18:25.221Z,101441.55
2023-05-10T06:20:56.040Z,101443.11
2023-05-10T06:23:27.539Z,101437.83
2023-05-10T06:25:58.223Z,101441.79
2023-05-10T06:28:28.925Z,101438.96
2023-05-10T06:30:59.892Z,101437.69
2023-05-10T06:33:30.750Z,101440.52
2023-05-10T06:36:03.074Z,101439.44
2023-05-10T06:38:36.117Z,101441.20
2023-05-10T06:41:11.789Z,101440.84
2023-05-10T06:43:42.504Z,101444.58
2023-05-10T06:46:13.706Z,101446.88
2023-05-10T06:48:44.821Z,101446.13
2023-05-10T06:51:18.726Z,101444.06
2023-05-10T06:53:49.600Z,101445.91
2023-05-10T06:56:22.571Z,101442.94
2023-05-10T06:58:53.866Z,101438.39
2023-05-10T07:01:24.813Z,101436.52
2023-05-10T07:03:59.509Z,101435.99
2023-05-10T07:06:33.681Z,101440.17
2023-05-10T07:09:09.092Z,101436.60
2023-05-10T07:11:40.054Z,101437.39
2023-05-10T07:14:13.246Z,101439.29
2023-05-10T07:16:44.393Z,101442.95
2023-05-10T07:19:15.164Z,101442.76
2023-05-10T07:21:46.251Z,101440.88
2023-05-10T07:24:17.000Z,101438.39
2023-05-10T07:26:49.135Z,101434.63
2023-05-10T07:29:20.051Z,101433.27
2023-05-10T07:31:55.407Z,101433.97
2023-05-10T07:34:29.289Z,101435.79
2023-05-10T07:37:00.369Z,101437.02
2023-05-10T07:39:31.119Z,101439.48
2023-05-10T07:42:01.963Z,101439.50
2023-05-10T07:44:34.743Z,101436.34
2023-05-10T07:47:05.713Z,101436.42
2023-05-10T07:49:36.708Z,101431.52
2023-05-10T07:52:09.544Z,101430.05
2023-05-10T07:54:40.521Z,101433.98
2023-05-10T07:57:11.189Z,101432.86
2023-05-10T07:59:42.353Z,101431.54
2023-05-10T08:02:13.110Z,101431.52
2023-05-10T08:04:44.050Z,101436.97
2023-05-10T08:07:15.082Z,101436.20
2023-05-10T08:09:48.130Z,101439.39
2023-05-10T08:12:18.939Z,101439.96
2023-05-10T08:14:49.908Z,101441.85
2023-05-10T08:17:22.068Z,101443.29
2023-05-10T08:19:54.306Z,101443.33
2023-05-10T08:22:27.776Z,101440.69
2023-05-10T08:24:58.550Z,101444.04
2023-05-10T08:27:29.382Z,101443.84
2023-05-10T08:30:00.196Z,101438.58
2023-05-10T08:32:30.941Z,101436.62
2023-05-10T08:35:01.867Z,101440.97
2023-05-10T08:37:36.233Z,101444.42
2023-05-10T08:40:07.898Z,101437.88
2023-05-10T08:42:39.252Z,101440.86
2023-05-10T08:45:10.964Z,101443.44
2023-05-10T08:47:44.546Z,101446.09
2023-05-10T08:50:17.406Z,101443.70
2023-05-10T08:52:48.963Z,101436.77
2023-05-10T08:55:19.919Z,101435.39
2023-05-10T08:57:56.288Z,101433.39
2023-05-10T09:00:27.341Z,101433.58
2023-05-10T09:02:59.867Z,101431.02
2023-05-10T09:05:33.637Z,101433.77
2023-05-10T09:08:05.056Z,101430.11
2023-05-10T09:10:38.032Z,101433.04
2023-05-10T09:13:11.075Z,101432.73
2023-05-10T09:15:41.869Z,101430.39
2023-05-10T09:18:12.818Z,101429.69
2023-05-10T09:20:43.664Z,101425.73
2023-05-10T09:23:14.395Z,101422.63
2023-05-10T09:25:46.144Z,101419.66
2023-05-10T09:28:16.997Z,101420.20
2023-05-10T09:30:47.823Z,101419.51
2023-05-10T09:33:18.579Z,101416.44
2023-05-10T09:35:49.092Z,101417.09
2023-05-10T09:38:20.058Z,101412.14
2023-05-10T09:40:55.555Z,101410.20
2023-05-10T09:43:26.194Z,101407.35
2023-05-10T09:45:56.886Z,101403.02
2023-05-10T09:48:27.600Z,101401.01
2023-05-10T09:51:00.545Z,101400.17
2023-05-10T09:53:31.391Z,101398.86
2023-05-10T09:56:02.274Z,101393.14
2023-05-10T09:58:32.992Z,101394.54
2023-05-10T10:01:03.808Z,101390.86
2023-05-10T10:03:34.624Z,101388.34
2023-05-10T10:06:06.768Z,101385.61
2023-05-10T10:08:40.339Z,101383.55
2023-05-10T10:11:11.006Z,101388.02
2023-05-10T10:13:41.826Z,101387.71
2023-05-10T10:16:12.497Z,101389.23
2023-05-10T10:18:43.573Z,101387.30
2023-05-10T10:21:17.347Z,101386.27
2023-05-10T10:23:48.113Z,101387.16
2023-05-10T10:26:18.986Z,101390.77
2023-05-10T10:28:53.909Z,101394.98
2023-05-10T10:31:27.917Z,101392.85
2023-05-10T10:34:01.981Z,101397.31
2023-05-10T10:36:36.693Z,101405.38
2023-05-10T10:39:10.787Z,101401.19
2023-05-10T10:41:44.952Z,101404.77
2023-05-10T10:44:46.052Z,101401.54
2023-05-10T10:47:32.160Z,101403.69
2023-05-10T10:50:07.078Z,101400.14
2023-05-10T10:52:38.000Z,101400.32
2023-05-10T10:55:10.478Z,101398.19
2023-05-10T10:57:48.359Z,101399.32
2023-05-10T11:00:29.607Z,101395.20
2023-05-10T11:03:01.480Z,101392.88
2023-05-10T11:05:42.613Z,101391.61
2023-05-10T11:08:14.269Z,101388.76
2023-05-10T11:10:53.103Z,101386.45
2023-05-10T11:13:33.825Z,101385.64
2023-05-10T11:16:13.874Z,101386.83
2023-05-10T11:18:47.975Z,101382.42
2023-05-10T11:21:20.578Z,101383.42
2023-05-10T11:23:52.032Z,101382.38
2023-05-10T11:26:26.232Z,101380.34
2023-05-10T11:29:00.287Z,101380.95
2023-05-10T11:31:31.337Z,101379.95
2023-05-10T11:34:03.041Z,101376.25
2023-05-10T11:36:35.080Z,101374.27
2023-05-10T11:39:06.322Z,101373.14
2023-05-10T11:41:37.160Z,101370.55
2023-05-10T11:44:07.979Z,101368.30
2023-05-10T11:46:38.903Z,101369.36
2023-05-10T11:49:09.703Z,101368.33
2023-05-10T11:51:40.556Z,101369.52
2023-05-10T11:54:14.768Z,101362.95
2023-05-10T11:56:46.543Z,101364.98
2023-05-10T11:59:17.674Z,101363.80
2023-05-10T12:01:48.327Z,101363.05
2023-05-10T12:04:19.109Z,101354.86
2023-05-10T12:06:49.981Z,101355.11
2023-05-10T12:09:31.570Z,101351.05
2023-05-10T12:12:10.895Z,101347.35
2023-05-10T12:14:41.681Z,101338.06
2023-05-10T12:17:15.487Z,101336.70
2023-05-10T12:19:46.258Z,101336.15
2023-05-10T12:22:17.054Z,101333.17
2023-05-10T12:24:49.254Z,101330.30
2023-05-10T12:27:19.877Z,101328.29
2023-05-10T12:29:50.486Z,101325.92
2023-05-10T12:32:21.310Z,101320.12
2023-05-10T12:34:53.412Z,101316.94
2023-05-10T12:37:28.292Z,101313.33
2023-05-10T12:39:59.042Z,101308.98
2023-05-10T12:42:30.451Z,101304.88
2023-05-10T12:45:01.229Z,101301.83
2023-05-10T12:47:32.206Z,101300.93
2023-05-10T12:50:03.650Z,101301.77
2023-05-10T12:52:34.332Z,101296.05
2023-05-10T12:55:05.235Z,101293.12
2023-05-10T12:57:35.979Z,101286.88
2023-05-10T13:00:08.092Z,101287.63
2023-05-10T13:02:38.878Z,101290.36
2023-05-10T13:05:10.597Z,101287.79
2023-05-10T13:07:41.318Z,101284.66
2023-05-10T13:10:12.460Z,101281.80
2023-05-10T13:12:43.230Z,101283.88
2023-05-10T13:15:14.106Z,101283.84
2023-05-10T13:17:46.403Z,101280.13
2023-05-10T13:20:17.490Z,101278.52
2023-05-10T13:22:50.529Z,101277.47
2023-05-10T13:25:21.956Z,101274.43
2023-05-10T13:27:52.643Z,101268.29
2023-05-10T13:30:24.986Z,101264.44
2023-05-10T13:32:55.790Z,101262.08
2023-05-10T13:35:26.759Z,101260.85
2023-05-10T13:37:58.874Z,101259.58
2023-05-10T13:40:30.225Z,101257.72
2023-05-10T13:43:01.137Z,101259.01
2023-05-10T13:45:31.949Z,101254.58
2023-05-10T13:48:02.776Z,101253.00
2023-05-10T13:50:33.652Z,101252.20
2023-05-10T13:53:04.395Z,101248.65
2023-05-10T13:55:35.142Z,101249.83
2023-05-10T13:58:06.073Z,101250.80
2023-05-10T14:00:36.619Z,101249.06
2023-05-10T14:03:08.134Z,101248.36
2023-05-10T14:05:38.980Z,101254.59
2023-05-10T14:08:10.484Z,101248.63
2023-05-10T14:10:41.504Z,101243.52
2023-05-10T14:13:12.222Z,101251.38
2023-05-10T14:15:42.960Z,101243.23
2023-05-10T14:18:13.721Z,101240.66
2023-05-10T14:20:44.429Z,101241.42
2023-05-10T14:23:15.179Z,101237.89
2023-05-10T14:25:45.954Z,101243.52
2023-05-10T14:28:17.093Z,101238.88
2023-05-10T14:30:48.046Z,101237.30
2023-05-10T14:33:18.776Z,101235.20
2023-05-10T14:35:49.462Z,101235.45
2023-05-10T14:38:20.283Z,101235.92
2023-05-10T14:40:50.907Z,101233.59
2023-05-10T14:43:21.771Z,101235.02
2023-05-10T14:45:52.513Z,101235.03
2023-05-10T14:48:23.436Z,101238.83
2023-05-10T14:50:54.821Z,101240.23
2023-05-10T14:53:25.464Z,101236.27
2023-05-10T14:55:56.207Z,101239.73
2023-05-10T14:58:27.148Z,101238.85
2023-05-10T15:00:57.834Z,101237.60
2023-05-10T15:03:29.230Z,101237.15
2023-05-10T15:06:00.670Z,101235.41
2023-05-10T15:08:31.505Z,101232.34
2023-05-10T15:11:02.607Z,101229.91
2023-05-10T15:13:33.586Z,101226.20
2023-05-10T15:16:04.386Z,101222.20
2023-05-10T15:18:35.261Z,101219.25
2023-05-10T15:21:06.220Z,101213.09
2023-05-10T15:23:37.065Z,101209.15
2023-05-10T15:26:07.698Z,101207.23
2023-05-10T15:28:38.495Z,101206.52
2023-05-10T15:31:09.196Z,101205.43
2023-05-10T15:33:40.292Z,101208.64
2023-05-10T15:36:11.032Z,101207.77
2023-05-10T15:38:41.826Z,101209.95
2023-05-10T15:41:12.946Z,101204.73
2023-05-10T15:43:43.868Z,101205.64
2023-05-10T15:46:14.760Z,101204.30
2023-05-10T15:48:45.572Z,101206.30
2023-05-10T15:51:16.693Z,101205.34
2023-05-10T15:54:05.296Z,101207.59
2023-05-10T15:56:38.312Z,101205.56
2023-05-10T15:59:11.049Z,101207.45
2023-05-10T16:01:43.441Z,101208.16
2023-05-10T16:04:14.589Z,101209.02
2023-05-10T16:06:45.753Z,101210.38
2023-05-10T16:09:16.772Z,101208.70
2023-05-10T16:11:47.674Z,101210.12
2023-05-10T16:14:18.722Z,101205.79
2023-05-10T16:16:49.624Z,101211.59
2023-05-10T16:19:20.845Z,101208.06
2023-05-10T16:21:51.651Z,101209.95
2023-05-10T16:24:22.369Z,101210.44
2023-05-10T16:26:53.297Z,101215.07
2023-05-10T16:29:25.252Z,101218.48
2023-05-10T16:31:57.692Z,101214.95
2023-05-10T16:34:28.482Z,101217.76
2023-05-10T16:36:59.232Z,101217.02
2023-05-10T16:39:29.949Z,101217.98
2023-05-10T16:42:01.224Z,101224.58
2023-05-10T16:44:31.891Z,101226.35
2023-05-10T16:47:03.406Z,101228.75
2023-05-10T16:49:34.011Z,101231.93
2023-05-10T16:52:04.885Z,101232.77
2023-05-10T16:54:35.406Z,101234.42
2023-05-10T16:57:06.408Z,101237.98
2023-05-10T16:59:37.705Z,101245.39
2023-05-10T17:02:11.017Z,101247.00
2023-05-10T17:08:50.562Z,101244.69
2023-05-10T17:11:27.077Z,101245.35
2023-05-10T17:14:34.375Z,101247.33
2023-05-10T17:17:12.710Z,101246.88
2023-05-10T17:19:46.407Z,101249.80
2023-05-10T17:22:17.223Z,101248.59
2023-05-10T17:24:49.439Z,101251.64
2023-05-10T17:27:20.361Z,101254.09
2023-05-10T17:29:51.095Z,101253.15
2023-05-10T17:32:25.691Z,101253.66
2023-05-10T17:34:59.150Z,101258.05
2023-05-10T17:37:30.139Z,101258.02
2023-05-10T17:40:01.006Z,101258.36
2023-05-10T17:42:34.279Z,101262.30
2023-05-10T17:45:05.463Z,101269.88
2023-05-10T17:47:36.388Z,101269.75
2023-05-10T17:50:10.845Z,101274.71
2023-05-10T17:52:41.799Z,101280.28
2023-05-10T17:58:34.227Z,101287.59
2023-05-10T18:01:05.438Z,101288.78
2023-05-10T18:03:38.431Z,101290.02
2023-05-10T18:06:11.771Z,101290.23
2023-05-10T18:08:42.767Z,101296.25
2023-05-10T18:11:16.796Z,101298.80
2023-05-10T18:13:49.923Z,101304.04
2023-05-10T18:16:25.249Z,101305.48
2023-05-10T18:18:56.217Z,101310.93
2023-05-10T18:21:29.215Z,101316.41
2023-05-10T18:24:30.061Z,101323.44
2023-05-10T18:35:57.950Z,101327.86
2023-05-10T18:38:39.270Z,101330.52
2023-05-10T18:55:08.810Z,101343.86
2023-05-10T19:02:37.589Z,101351.59
2023-05-10T19:13:37.045Z,101352.91
2023-05-10T19:16:30.143Z,101362.13
2023-05-10T19:19:04.394Z,101361.23
2023-05-10T19:21:46.769Z,101361.06
2023-05-10T19:24:25.416Z,101368.21
2023-05-10T19:27:02.331Z,101366.95
2023-05-10T19:29:45.648Z,101365.05
2023-05-10T19:32:16.627Z,101369.40
2023-05-10T19:34:53.643Z,101370.56
2023-05-10T19:37:50.872Z,101368.86
2023-05-10T19:40:21.646Z,101374.34
2023-05-10T19:42:57.212Z,101380.79
2023-05-10T19:45:27.916Z,101375.81
2023-05-10T19:48:03.123Z,101377.70
2023-05-10T19:50:33.983Z,101376.66
2023-05-10T19:53:04.682Z,101379.04
2023-05-10T19:55:38.353Z,101378.97
2023-05-10T19:58:09.039Z,101378.15
2023-05-10T20:00:40.387Z,101384.11
2023-05-10T20:03:11.805Z,101381.34
2023-05-10T20:05:42.753Z,101385.59
2023-05-10T20:08:13.713Z,101385.60
2023-05-10T20:10:44.570Z,101388.88
2023-05-10T20:13:18.434Z,101387.06
2023-05-10T20:15:49.148Z,101389.45
2023-05-10T20:18:20.385Z,101389.61
2023-05-10T20:20:52.218Z,101390.09
2023-05-10T20:23:24.037Z,101392.21
2023-05-10T20:25:55.263Z,101389.58
2023-05-10T20:28:27.328Z,101387.45
2023-05-10T20:30:58.169Z,101386.04
2023-05-10T20:33:29.164Z,101389.23
2023-05-10T20:36:28.745Z,101390.52
2023-05-10T20:39:11.027Z,101393.58
2023-05-10T20:41:45.098Z,101393.77
2023-05-10T20:44:26.482Z,101397.39
2023-05-10T20:47:12.801Z,101399.85
2023-05-10T20:50:04.334Z,101401.84
2023-05-10T20:52:38.304Z,101403.23
2023-05-10T20:55:13.384Z,101404.39
2023-05-10T20:57:47.387Z,101404.38
2023-05-10T21:00:37.619Z,101405.79
2023-05-10T21:03:14.861Z,101405.89
2023-05-10T21:05:48.348Z,101407.20
2023-05-10T21:08:39.792Z,101403.11
2023-05-10T21:11:10.710Z,101403.39
2023-05-10T21:13:41.436Z,101402.70
2023-05-10T21:16:12.314Z,101398.53
2023-05-10T21:18:43.201Z,101402.09
2023-05-10T21:21:13.925Z,101404.77
2023-05-10T21:23:44.726Z,101400.10
2023-05-10T21:26:15.471Z,101400.80
2023-05-10T21:28:46.807Z,101402.77
2023-05-10T21:31:17.653Z,101405.69
2023-05-10T21:33:48.366Z,101403.20
2023-05-10T21:36:19.063Z,101400.44
2023-05-10T21:38:50.668Z,101398.92
2023-05-10T21:41:21.829Z,101402.80
2023-05-10T21:43:52.646Z,101401.80
2023-05-10T21:46:23.694Z,101404.42
2023-05-10T21:48:54.692Z,101402.09
2023-05-10T21:51:25.497Z,101398.45
2023-05-10T21:53:56.254Z,101402.02
2023-05-10T21:56:27.099Z,101401.55
2023-05-10T21:58:58.159Z,101401.18
2023-05-10T22:01:29.277Z,101399.96
2023-05-10T22:04:00.068Z,101399.98
2023-05-10T22:06:30.852Z,101397.38
2023-05-10T22:09:01.846Z,101403.30
2023-05-10T22:11:32.643Z,101400.41
2023-05-10T22:14:03.543Z,101399.11
2023-05-10T22:16:34.236Z,101397.65
2023-05-10T22:19:05.445Z,101398.35
2023-05-10T22:21:36.347Z,101398.35
2023-05-10T22:24:07.465Z,101398.36
2023-05-10T22:26:38.399Z,101399.92
2023-05-10T22:29:09.243Z,101398.65
2023-05-10T22:31:39.969Z,101397.33
2023-05-10T22:34:10.686Z,101396.18
2023-05-10T22:36:41.483Z,101395.75
2023-05-10T22:39:12.316Z,101397.23
2023-05-10T22:41:43.039Z,101399.04
2023-05-10T22:44:13.782Z,101397.70
2023-05-10T22:46:44.643Z,101397.91
2023-05-10T22:49:15.505Z,101399.36
2023-05-10T22:51:46.621Z,101399.80
2023-05-10T22:54:17.633Z,101404.44
2023-05-10T22:56:48.560Z,101404.88
2023-05-10T22:59:19.373Z,101397.50
2023-05-10T23:01:50.271Z,101400.23
2023-05-10T23:04:21.028Z,101400.63
2023-05-10T23:06:51.801Z,101402.64
2023-05-10T23:09:22.666Z,101399.37
2023-05-10T23:11:53.350Z,101397.10
2023-05-10T23:14:24.214Z,101399.50
2023-05-10T23:16:55.073Z,101397.27
2023-05-10T23:19:25.898Z,101392.86
2023-05-10T23:21:56.649Z,101389.04
2023-05-10T23:24:27.278Z,101389.20
2023-05-10T23:26:58.069Z,101386.41
2023-05-10T23:29:28.862Z,101382.48
2023-05-10T23:31:59.630Z,101380.97
2023-05-10T23:34:30.723Z,101375.23
2023-05-10T23:37:01.360Z,101370.36
2023-05-10T23:39:32.002Z,101372.42
2023-05-10T23:42:03.403Z,101368.52
2023-05-10T23:44:34.322Z,101366.30
2023-05-10T23:47:05.191Z,101369.29
2023-05-10T23:49:36.456Z,101363.41
2023-05-10T23:52:07.254Z,101366.88
2023-05-10T23:54:38.141Z,101367.61
2023-05-10T23:57:08.950Z,101368.52
2023-05-10T23:59:39.618Z,101368.13
